sensor_id;sensor_type;location;lat;lon;timestamp;P1;durP1;ratioP1;P2;durP2;ratioP2
19205;SDS011;59358;52.134;5.596;2022-09-17T00:00:09;17.08;;;3.72;;
19205;SDS011;59358;52.134;5.596;2022-09-17T00:02:37;16.05;;;3.17;;
19205;SDS011;59358;52.134;5.596;2022-09-17T00:05:04;17.75;;;4.53;;
19205;SDS011;59358;52.134;5.596;2022-09-17T00:07:34;22.02;;;3.10;;
19205;SDS011;59358;52.134;5.596;2022-09-17T00:10:01;15.00;;;3.13;;
19205;SDS011;59358;52.134;5.596;2022-09-17T00:12:29;19.08;;;3.33;;
19205;SDS011;59358;52.134;5.596;2022-09-17T00:14:56;13.32;;;2.80;;
19205;SDS011;59358;52.134;5.596;2022-09-17T00:17:25;15.73;;;3.33;;
19205;SDS011;59358;52.134;5.596;2022-09-17T00:19:51;15.82;;;3.05;;
19205;SDS011;59358;52.134;5.596;2022-09-17T00:22:18;13.70;;;2.97;;
19205;SDS011;59358;52.134;5.596;2022-09-17T00:24:45;17.92;;;3.33;;
19205;SDS011;59358;52.134;5.596;2022-09-17T00:27:12;13.45;;;3.13;;
19205;SDS011;59358;52.134;5.596;2022-09-17T00:29:39;12.60;;;3.15;;
19205;SDS011;59358;52.134;5.596;2022-09-17T00:32:06;18.42;;;2.97;;
19205;SDS011;59358;52.134;5.596;2022-09-17T00:34:35;16.75;;;2.83;;
19205;SDS011;59358;52.134;5.596;2022-09-17T00:37:01;11.82;;;2.70;;
19205;SDS011;59358;52.134;5.596;2022-09-17T00:39:28;12.27;;;3.00;;
19205;SDS011;59358;52.134;5.596;2022-09-17T00:41:55;16.38;;;2.95;;
19205;SDS011;59358;52.134;5.596;2022-09-17T00:44:38;14.77;;;3.38;;
19205;SDS011;59358;52.134;5.596;2022-09-17T00:47:07;22.15;;;3.35;;
19205;SDS011;59358;52.134;5.596;2022-09-17T00:49:42;16.45;;;2.47;;
19205;SDS011;59358;52.134;5.596;2022-09-17T00:52:10;24.67;;;2.95;;
19205;SDS011;59358;52.134;5.596;2022-09-17T00:54:40;19.35;;;2.85;;
19205;SDS011;59358;52.134;5.596;2022-09-17T00:57:09;14.43;;;3.03;;
19205;SDS011;59358;52.134;5.596;2022-09-17T00:59:37;17.90;;;3.00;;
19205;SDS011;59358;52.134;5.596;2022-09-17T01:02:04;12.65;;;2.58;;
19205;SDS011;59358;52.134;5.596;2022-09-17T01:04:32;13.18;;;2.35;;
19205;SDS011;59358;52.134;5.596;2022-09-17T01:07:02;9.63;;;2.42;;
19205;SDS011;59358;52.134;5.596;2022-09-17T01:09:37;15.38;;;3.20;;
19205;SDS011;59358;52.134;5.596;2022-09-17T01:12:17;15.30;;;3.05;;
19205;SDS011;59358;52.134;5.596;2022-09-17T01:14:59;15.25;;;2.50;;
19205;SDS011;59358;52.134;5.596;2022-09-17T01:17:35;18.27;;;3.47;;
19205;SDS011;59358;52.134;5.596;2022-09-17T01:23:24;10.98;;;2.78;;
19205;SDS011;59358;52.134;5.596;2022-09-17T01:26:12;11.00;;;2.15;;
19205;SDS011;59358;52.134;5.596;2022-09-17T01:28:55;13.90;;;2.63;;
19205;SDS011;59358;52.134;5.596;2022-09-17T01:31:33;12.88;;;2.13;;
19205;SDS011;59358;52.134;5.596;2022-09-17T01:34:09;9.55;;;2.38;;
19205;SDS011;59358;52.134;5.596;2022-09-17T01:36:51;10.85;;;2.10;;
19205;SDS011;59358;52.134;5.596;2022-09-17T01:39:29;10.05;;;2.60;;
19205;SDS011;59358;52.134;5.596;2022-09-17T01:42:03;12.02;;;2.17;;
19205;SDS011;59358;52.134;5.596;2022-09-17T01:44:39;9.38;;;1.88;;
19205;SDS011;59358;52.134;5.596;2022-09-17T01:47:14;10.95;;;2.38;;
19205;SDS011;59358;52.134;5.596;2022-09-17T01:49:46;11.05;;;2.13;;
19205;SDS011;59358;52.134;5.596;2022-09-17T01:52:15;8.07;;;1.85;;
19205;SDS011;59358;52.134;5.596;2022-09-17T01:54:44;7.97;;;1.92;;
19205;SDS011;59358;52.134;5.596;2022-09-17T01:57:13;8.40;;;1.60;;
19205;SDS011;59358;52.134;5.596;2022-09-17T01:59:45;12.10;;;1.83;;
19205;SDS011;59358;52.134;5.596;2022-09-17T02:02:20;14.73;;;2.35;;
19205;SDS011;59358;52.134;5.596;2022-09-17T02:04:54;7.60;;;1.70;;
19205;SDS011;59358;52.134;5.596;2022-09-17T02:07:24;8.75;;;1.70;;
19205;SDS011;59358;52.134;5.596;2022-09-17T02:09:55;9.18;;;1.55;;
19205;SDS011;59358;52.134;5.596;2022-09-17T02:12:27;11.38;;;2.10;;
19205;SDS011;59358;52.134;5.596;2022-09-17T02:14:59;9.98;;;2.15;;
19205;SDS011;59358;52.134;5.596;2022-09-17T02:17:31;7.28;;;2.00;;
19205;SDS011;59358;52.134;5.596;2022-09-17T02:20:02;8.13;;;1.98;;
19205;SDS011;59358;52.134;5.596;2022-09-17T02:22:32;10.90;;;1.80;;
19205;SDS011;59358;52.134;5.596;2022-09-17T02:25:03;8.80;;;1.85;;
19205;SDS011;59358;52.134;5.596;2022-09-17T02:27:41;8.07;;;1.60;;
19205;SDS011;59358;52.134;5.596;2022-09-17T02:30:16;10.02;;;1.77;;
19205;SDS011;59358;52.134;5.596;2022-09-17T02:32:44;8.48;;;2.20;;
19205;SDS011;59358;52.134;5.596;2022-09-17T02:35:11;11.57;;;2.10;;
19205;SDS011;59358;52.134;5.596;2022-09-17T02:37:39;8.85;;;1.40;;
19205;SDS011;59358;52.134;5.596;2022-09-17T02:40:07;8.35;;;2.60;;
19205;SDS011;59358;52.134;5.596;2022-09-17T02:42:37;15.23;;;1.95;;
19205;SDS011;59358;52.134;5.596;2022-09-17T02:45:22;8.82;;;1.70;;
19205;SDS011;59358;52.134;5.596;2022-09-17T02:48:07;7.35;;;1.38;;
19205;SDS011;59358;52.134;5.596;2022-09-17T02:50:51;7.63;;;1.70;;
19205;SDS011;59358;52.134;5.596;2022-09-17T02:53:30;14.65;;;1.65;;
19205;SDS011;59358;52.134;5.596;2022-09-17T02:56:08;6.82;;;1.33;;
19205;SDS011;59358;52.134;5.596;2022-09-17T02:58:44;9.00;;;1.77;;
19205;SDS011;59358;52.134;5.596;2022-09-17T03:01:19;9.25;;;2.00;;
19205;SDS011;59358;52.134;5.596;2022-09-17T03:03:50;8.95;;;1.63;;
19205;SDS011;59358;52.134;5.596;2022-09-17T03:06:20;6.28;;;2.00;;
19205;SDS011;59358;52.134;5.596;2022-09-17T03:08:47;12.38;;;2.25;;
19205;SDS011;59358;52.134;5.596;2022-09-17T03:11:15;10.07;;;1.55;;
19205;SDS011;59358;52.134;5.596;2022-09-17T03:13:41;12.32;;;1.63;;
19205;SDS011;59358;52.134;5.596;2022-09-17T03:16:08;8.52;;;1.80;;
19205;SDS011;59358;52.134;5.596;2022-09-17T03:18:35;8.57;;;1.48;;
19205;SDS011;59358;52.134;5.596;2022-09-17T03:21:03;14.75;;;2.63;;
19205;SDS011;59358;52.134;5.596;2022-09-17T03:23:30;11.57;;;2.65;;
19205;SDS011;59358;52.134;5.596;2022-09-17T03:25:57;19.23;;;1.90;;
19205;SDS011;59358;52.134;5.596;2022-09-17T03:28:25;12.35;;;1.98;;
19205;SDS011;59358;52.134;5.596;2022-09-17T03:30:52;18.80;;;2.08;;
19205;SDS011;59358;52.134;5.596;2022-09-17T03:33:19;9.23;;;1.90;;
19205;SDS011;59358;52.134;5.596;2022-09-17T03:35:46;10.32;;;1.88;;
19205;SDS011;59358;52.134;5.596;2022-09-17T03:38:15;9.52;;;1.90;;
19205;SDS011;59358;52.134;5.596;2022-09-17T03:40:42;10.00;;;2.35;;
19205;SDS011;59358;52.134;5.596;2022-09-17T03:43:09;5.22;;;1.40;;
19205;SDS011;59358;52.134;5.596;2022-09-17T03:45:36;10.48;;;1.73;;
19205;SDS011;59358;52.134;5.596;2022-09-17T03:48:02;9.70;;;1.90;;
19205;SDS011;59358;52.134;5.596;2022-09-17T03:50:29;15.45;;;3.17;;
19205;SDS011;59358;52.134;5.596;2022-09-17T03:52:56;6.95;;;2.10;;
19205;SDS011;59358;52.134;5.596;2022-09-17T03:55:25;6.88;;;1.65;;
19205;SDS011;59358;52.134;5.596;2022-09-17T03:57:51;9.07;;;1.75;;
19205;SDS011;59358;52.134;5.596;2022-09-17T04:00:20;13.10;;;2.95;;
19205;SDS011;59358;52.134;5.596;2022-09-17T04:02:46;11.60;;;2.13;;
19205;SDS011;59358;52.134;5.596;2022-09-17T04:05:13;8.30;;;1.83;;
19205;SDS011;59358;52.134;5.596;2022-09-17T04:07:40;9.80;;;2.30;;
19205;SDS011;59358;52.134;5.596;2022-09-17T04:10:07;16.35;;;2.70;;
19205;SDS011;59358;52.134;5.596;2022-09-17T04:12:35;14.20;;;2.10;;
19205;SDS011;59358;52.134;5.596;2022-09-17T04:15:03;12.30;;;1.98;;
19205;SDS011;59358;52.134;5.596;2022-09-17T04:17:30;12.65;;;2.72;;
19205;SDS011;59358;52.134;5.596;2022-09-17T04:19:57;13.63;;;2.08;;
19205;SDS011;59358;52.134;5.596;2022-09-17T04:22:24;14.15;;;2.63;;
19205;SDS011;59358;52.134;5.596;2022-09-17T04:24:51;9.27;;;2.58;;
19205;SDS011;59358;52.134;5.596;2022-09-17T04:27:18;10.88;;;2.28;;
19205;SDS011;59358;52.134;5.596;2022-09-17T04:29:46;8.00;;;1.52;;
19205;SDS011;59358;52.134;5.596;2022-09-17T04:32:13;12.25;;;2.15;;
19205;SDS011;59358;52.134;5.596;2022-09-17T04:34:40;17.83;;;2.00;;
19205;SDS011;59358;52.134;5.596;2022-09-17T04:37:07;7.97;;;1.92;;
19205;SDS011;59358;52.134;5.596;2022-09-17T04:39:34;12.07;;;2.03;;
19205;SDS011;59358;52.134;5.596;2022-09-17T04:42:02;8.98;;;1.77;;
19205;SDS011;59358;52.134;5.596;2022-09-17T04:44:29;6.45;;;2.05;;
19205;SDS011;59358;52.134;5.596;2022-09-17T04:46:57;11.25;;;2.53;;
19205;SDS011;59358;52.134;5.596;2022-09-17T04:49:24;13.23;;;2.58;;
19205;SDS011;59358;52.134;5.596;2022-09-17T04:51:53;12.25;;;2.10;;
19205;SDS011;59358;52.134;5.596;2022-09-17T04:54:20;13.73;;;1.70;;
19205;SDS011;59358;52.134;5.596;2022-09-17T04:56:47;10.55;;;1.92;;
19205;SDS011;59358;52.134;5.596;2022-09-17T04:59:14;7.13;;;2.20;;
19205;SDS011;59358;52.134;5.596;2022-09-17T05:01:41;10.13;;;2.33;;
19205;SDS011;59358;52.134;5.596;2022-09-17T05:04:09;6.57;;;1.92;;
19205;SDS011;59358;52.134;5.596;2022-09-17T05:06:36;9.60;;;1.52;;
19205;SDS011;59358;52.134;5.596;2022-09-17T05:09:02;11.88;;;2.75;;
19205;SDS011;59358;52.134;5.596;2022-09-17T05:11:29;12.10;;;2.35;;
19205;SDS011;59358;52.134;5.596;2022-09-17T05:13:56;7.88;;;2.00;;
19205;SDS011;59358;52.134;5.596;2022-09-17T05:16:22;11.70;;;1.50;;
19205;SDS011;59358;52.134;5.596;2022-09-17T05:18:49;9.63;;;1.98;;
19205;SDS011;59358;52.134;5.596;2022-09-17T05:21:18;18.00;;;1.95;;
19205;SDS011;59358;52.134;5.596;2022-09-17T05:23:45;16.63;;;2.58;;
19205;SDS011;59358;52.134;5.596;2022-09-17T05:26:11;12.00;;;2.05;;
19205;SDS011;59358;52.134;5.596;2022-09-17T05:28:38;11.73;;;2.00;;
19205;SDS011;59358;52.134;5.596;2022-09-17T05:31:05;14.80;;;2.22;;
19205;SDS011;59358;52.134;5.596;2022-09-17T05:33:32;7.15;;;1.70;;
19205;SDS011;59358;52.134;5.596;2022-09-17T05:35:59;9.55;;;1.67;;
19205;SDS011;59358;52.134;5.596;2022-09-17T05:38:27;6.57;;;2.00;;
19205;SDS011;59358;52.134;5.596;2022-09-17T05:40:54;6.35;;;1.85;;
19205;SDS011;59358;52.134;5.596;2022-09-17T05:43:21;8.48;;;1.60;;
19205;SDS011;59358;52.134;5.596;2022-09-17T05:45:48;8.50;;;2.25;;
19205;SDS011;59358;52.134;5.596;2022-09-17T05:48:15;6.97;;;1.63;;
19205;SDS011;59358;52.134;5.596;2022-09-17T05:50:42;6.25;;;1.75;;
19205;SDS011;59358;52.134;5.596;2022-09-17T05:53:09;10.07;;;1.50;;
19205;SDS011;59358;52.134;5.596;2022-09-17T05:55:39;7.00;;;2.00;;
19205;SDS011;59358;52.134;5.596;2022-09-17T05:58:09;7.50;;;1.75;;
19205;SDS011;59358;52.134;5.596;2022-09-17T06:00:37;8.52;;;2.10;;
19205;SDS011;59358;52.134;5.596;2022-09-17T06:03:05;8.70;;;1.80;;
19205;SDS011;59358;52.134;5.596;2022-09-17T06:05:32;12.02;;;1.95;;
19205;SDS011;59358;52.134;5.596;2022-09-17T06:07:58;9.32;;;1.95;;
19205;SDS011;59358;52.134;5.596;2022-09-17T06:10:25;8.05;;;1.65;;
19205;SDS011;59358;52.134;5.596;2022-09-17T06:12:55;12.27;;;2.65;;
19205;SDS011;59358;52.134;5.596;2022-09-17T06:15:23;11.95;;;1.60;;
19205;SDS011;59358;52.134;5.596;2022-09-17T06:17:50;8.15;;;1.50;;
19205;SDS011;59358;52.134;5.596;2022-09-17T06:20:17;7.18;;;1.60;;
19205;SDS011;59358;52.134;5.596;2022-09-17T06:22:44;8.70;;;1.88;;
19205;SDS011;59358;52.134;5.596;2022-09-17T06:25:11;10.90;;;1.52;;
19205;SDS011;59358;52.134;5.596;2022-09-17T06:27:39;10.02;;;1.95;;
19205;SDS011;59358;52.134;5.596;2022-09-17T06:30:07;9.23;;;1.85;;
19205;SDS011;59358;52.134;5.596;2022-09-17T06:32:35;7.07;;;1.27;;
19205;SDS011;59358;52.134;5.596;2022-09-17T06:35:02;7.28;;;1.40;;
19205;SDS011;59358;52.134;5.596;2022-09-17T06:37:29;9.02;;;1.95;;
19205;SDS011;59358;52.134;5.596;2022-09-17T06:39:57;8.55;;;1.42;;
19205;SDS011;59358;52.134;5.596;2022-09-17T06:42:24;5.40;;;1.10;;
19205;SDS011;59358;52.134;5.596;2022-09-17T06:44:52;11.13;;;1.90;;
19205;SDS011;59358;52.134;5.596;2022-09-17T06:47:22;9.10;;;1.55;;
19205;SDS011;59358;52.134;5.596;2022-09-17T06:49:49;7.90;;;2.17;;
19205;SDS011;59358;52.134;5.596;2022-09-17T06:52:16;9.30;;;1.73;;
19205;SDS011;59358;52.134;5.596;2022-09-17T06:54:43;5.15;;;1.08;;
19205;SDS011;59358;52.134;5.596;2022-09-17T06:57:11;7.68;;;1.40;;
19205;SDS011;59358;52.134;5.596;2022-09-17T06:59:38;9.20;;;1.80;;
19205;SDS011;59358;52.134;5.596;2022-09-17T07:02:07;11.13;;;1.92;;
19205;SDS011;59358;52.134;5.596;2022-09-17T07:04:36;6.85;;;1.40;;
19205;SDS011;59358;52.134;5.596;2022-09-17T07:07:03;7.00;;;1.42;;
19205;SDS011;59358;52.134;5.596;2022-09-17T07:09:30;7.45;;;1.00;;
19205;SDS011;59358;52.134;5.596;2022-09-17T07:11:57;11.52;;;1.33;;
19205;SDS011;59358;52.134;5.596;2022-09-17T07:14:24;8.43;;;1.67;;
19205;SDS011;59358;52.134;5.596;2022-09-17T07:16:53;5.80;;;1.65;;
19205;SDS011;59358;52.134;5.596;2022-09-17T07:19:19;8.95;;;1.48;;
19205;SDS011;59358;52.134;5.596;2022-09-17T07:21:48;6.30;;;1.90;;
19205;SDS011;59358;52.134;5.596;2022-09-17T07:24:15;5.13;;;1.60;;
19205;SDS011;59358;52.134;5.596;2022-09-17T07:26:44;4.68;;;1.30;;
19205;SDS011;59358;52.134;5.596;2022-09-17T07:29:11;10.35;;;2.47;;
19205;SDS011;59358;52.134;5.596;2022-09-17T07:31:38;9.50;;;1.85;;
19205;SDS011;59358;52.134;5.596;2022-09-17T07:34:05;6.85;;;1.98;;
19205;SDS011;59358;52.134;5.596;2022-09-17T07:36:31;6.88;;;1.85;;
19205;SDS011;59358;52.134;5.596;2022-09-17T07:39:02;8.60;;;2.10;;
19205;SDS011;59358;52.134;5.596;2022-09-17T07:41:29;7.50;;;2.10;;
19205;SDS011;59358;52.134;5.596;2022-09-17T07:43:57;10.30;;;1.60;;
19205;SDS011;59358;52.134;5.596;2022-09-17T07:46:26;6.03;;;1.90;;
19205;SDS011;59358;52.134;5.596;2022-09-17T07:48:54;4.40;;;1.10;;
19205;SDS011;59358;52.134;5.596;2022-09-17T07:51:21;6.05;;;1.30;;
19205;SDS011;59358;52.134;5.596;2022-09-17T07:53:50;5.13;;;1.95;;
19205;SDS011;59358;52.134;5.596;2022-09-17T07:56:18;11.23;;;1.52;;
19205;SDS011;59358;52.134;5.596;2022-09-17T07:58:45;5.70;;;1.60;;
19205;SDS011;59358;52.134;5.596;2022-09-17T08:01:12;9.40;;;1.35;;
19205;SDS011;59358;52.134;5.596;2022-09-17T08:03:40;7.20;;;1.52;;
19205;SDS011;59358;52.134;5.596;2022-09-17T08:06:09;10.35;;;1.33;;
19205;SDS011;59358;52.134;5.596;2022-09-17T08:08:37;9.85;;;1.50;;
19205;SDS011;59358;52.134;5.596;2022-09-17T08:11:06;11.35;;;1.40;;
19205;SDS011;59358;52.134;5.596;2022-09-17T08:13:35;7.15;;;2.17;;
19205;SDS011;59358;52.134;5.596;2022-09-17T08:16:04;7.28;;;1.77;;
19205;SDS011;59358;52.134;5.596;2022-09-17T08:18:33;12.95;;;1.75;;
19205;SDS011;59358;52.134;5.596;2022-09-17T08:21:02;4.55;;;1.42;;
19205;SDS011;59358;52.134;5.596;2022-09-17T08:23:30;6.72;;;1.52;;
19205;SDS011;59358;52.134;5.596;2022-09-17T08:26:00;7.10;;;1.40;;
19205;SDS011;59358;52.134;5.596;2022-09-17T08:28:28;11.43;;;1.65;;
19205;SDS011;59358;52.134;5.596;2022-09-17T08:31:00;5.20;;;1.27;;
19205;SDS011;59358;52.134;5.596;2022-09-17T08:33:29;3.33;;;0.90;;
19205;SDS011;59358;52.134;5.596;2022-09-17T08:35:57;5.18;;;1.45;;
19205;SDS011;59358;52.134;5.596;2022-09-17T08:38:24;4.57;;;1.27;;
19205;SDS011;59358;52.134;5.596;2022-09-17T08:40:55;5.60;;;0.90;;
19205;SDS011;59358;52.134;5.596;2022-09-17T08:43:34;8.45;;;1.55;;
19205;SDS011;59358;52.134;5.596;2022-09-17T08:46:08;5.22;;;0.88;;
19205;SDS011;59358;52.134;5.596;2022-09-17T08:48:36;3.90;;;0.82;;
19205;SDS011;59358;52.134;5.596;2022-09-17T08:51:09;5.72;;;1.02;;
19205;SDS011;59358;52.134;5.596;2022-09-17T08:53:59;6.70;;;1.00;;
19205;SDS011;59358;52.134;5.596;2022-09-17T08:56:34;3.90;;;0.90;;
19205;SDS011;59358;52.134;5.596;2022-09-17T08:59:04;4.85;;;1.05;;
19205;SDS011;59358;52.134;5.596;2022-09-17T09:01:41;2.30;;;0.85;;
19205;SDS011;59358;52.134;5.596;2022-09-17T09:04:33;5.07;;;0.98;;
19205;SDS011;59358;52.134;5.596;2022-09-17T09:07:10;7.88;;;0.98;;
19205;SDS011;59358;52.134;5.596;2022-09-17T09:09:43;7.22;;;1.38;;
19205;SDS011;59358;52.134;5.596;2022-09-17T09:12:16;3.28;;;0.90;;
19205;SDS011;59358;52.134;5.596;2022-09-17T09:14:50;6.65;;;2.13;;
19205;SDS011;59358;52.134;5.596;2022-09-17T09:17:23;2.85;;;0.90;;
19205;SDS011;59358;52.134;5.596;2022-09-17T09:19:54;5.72;;;1.02;;
19205;SDS011;59358;52.134;5.596;2022-09-17T09:22:44;6.22;;;1.20;;
19205;SDS011;59358;52.134;5.596;2022-09-17T09:25:17;4.35;;;1.17;;
19205;SDS011;59358;52.134;5.596;2022-09-17T09:27:49;3.22;;;1.30;;
19205;SDS011;59358;52.134;5.596;2022-09-17T09:30:24;6.90;;;1.38;;
19205;SDS011;59358;52.134;5.596;2022-09-17T09:32:57;10.68;;;1.42;;
19205;SDS011;59358;52.134;5.596;2022-09-17T09:35:30;5.55;;;1.00;;
19205;SDS011;59358;52.134;5.596;2022-09-17T09:38:00;3.35;;;0.95;;
19205;SDS011;59358;52.134;5.596;2022-09-17T09:40:36;9.13;;;1.83;;
19205;SDS011;59358;52.134;5.596;2022-09-17T09:43:11;1.92;;;0.93;;
19205;SDS011;59358;52.134;5.596;2022-09-17T09:45:54;9.25;;;1.88;;
19205;SDS011;59358;52.134;5.596;2022-09-17T09:48:39;6.78;;;1.38;;
19205;SDS011;59358;52.134;5.596;2022-09-17T09:51:17;7.35;;;1.92;;
19205;SDS011;59358;52.134;5.596;2022-09-17T09:53:59;4.68;;;1.30;;
19205;SDS011;59358;52.134;5.596;2022-09-17T09:56:46;3.60;;;1.27;;
19205;SDS011;59358;52.134;5.596;2022-09-17T09:59:20;5.82;;;1.10;;
19205;SDS011;59358;52.134;5.596;2022-09-17T10:01:47;6.78;;;1.35;;
19205;SDS011;59358;52.134;5.596;2022-09-17T10:04:16;5.93;;;1.20;;
19205;SDS011;59358;52.134;5.596;2022-09-17T10:06:45;6.50;;;1.73;;
19205;SDS011;59358;52.134;5.596;2022-09-17T10:09:14;5.85;;;1.55;;
19205;SDS011;59358;52.134;5.596;2022-09-17T10:11:57;6.53;;;1.35;;
19205;SDS011;59358;52.134;5.596;2022-09-17T10:14:26;6.65;;;1.17;;
19205;SDS011;59358;52.134;5.596;2022-09-17T10:17:10;2.08;;;0.63;;
19205;SDS011;59358;52.134;5.596;2022-09-17T10:19:44;2.78;;;1.10;;
19205;SDS011;59358;52.134;5.596;2022-09-17T10:22:17;4.93;;;1.48;;
19205;SDS011;59358;52.134;5.596;2022-09-17T10:24:49;6.78;;;1.25;;
19205;SDS011;59358;52.134;5.596;2022-09-17T10:27:18;5.22;;;1.13;;
19205;SDS011;59358;52.134;5.596;2022-09-17T10:29:48;4.65;;;1.00;;
19205;SDS011;59358;52.134;5.596;2022-09-17T10:32:20;5.93;;;0.90;;
19205;SDS011;59358;52.134;5.596;2022-09-17T10:34:59;5.43;;;1.85;;
19205;SDS011;59358;52.134;5.596;2022-09-17T10:37:32;11.35;;;1.42;;
19205;SDS011;59358;52.134;5.596;2022-09-17T10:40:26;4.22;;;1.20;;
19205;SDS011;59358;52.134;5.596;2022-09-17T10:45:53;4.57;;;1.10;;
19205;SDS011;59358;52.134;5.596;2022-09-17T10:48:23;2.88;;;1.08;;
19205;SDS011;59358;52.134;5.596;2022-09-17T10:50:54;5.15;;;1.25;;
19205;SDS011;59358;52.134;5.596;2022-09-17T10:53:22;5.55;;;1.13;;
19205;SDS011;59358;52.134;5.596;2022-09-17T10:55:51;3.65;;;1.00;;
19205;SDS011;59358;52.134;5.596;2022-09-17T10:58:27;3.72;;;1.13;;
19205;SDS011;59358;52.134;5.596;2022-09-17T11:01:10;5.80;;;1.23;;
19205;SDS011;59358;52.134;5.596;2022-09-17T11:03:57;5.00;;;1.50;;
19205;SDS011;59358;52.134;5.596;2022-09-17T11:06:47;6.03;;;2.58;;
19205;SDS011;59358;52.134;5.596;2022-09-17T11:09:32;6.75;;;1.67;;
19205;SDS011;59358;52.134;5.596;2022-09-17T11:12:20;7.97;;;1.75;;
19205;SDS011;59358;52.134;5.596;2022-09-17T11:14:54;7.45;;;2.03;;
19205;SDS011;59358;52.134;5.596;2022-09-17T11:17:33;9.30;;;1.75;;
19205;SDS011;59358;52.134;5.596;2022-09-17T11:20:23;4.72;;;1.52;;
19205;SDS011;59358;52.134;5.596;2022-09-17T11:23:06;5.72;;;1.88;;
19205;SDS011;59358;52.134;5.596;2022-09-17T11:25:43;8.30;;;1.65;;
19205;SDS011;59358;52.134;5.596;2022-09-17T11:28:24;8.73;;;1.60;;
19205;SDS011;59358;52.134;5.596;2022-09-17T11:31:14;10.82;;;2.40;;
19205;SDS011;59358;52.134;5.596;2022-09-17T11:33:54;11.60;;;1.90;;
19205;SDS011;59358;52.134;5.596;2022-09-17T11:36:42;9.38;;;2.22;;
19205;SDS011;59358;52.134;5.596;2022-09-17T11:39:17;14.48;;;2.28;;
19205;SDS011;59358;52.134;5.596;2022-09-17T11:41:48;8.23;;;1.83;;
19205;SDS011;59358;52.134;5.596;2022-09-17T11:44:20;6.68;;;1.92;;
19205;SDS011;59358;52.134;5.596;2022-09-17T11:46:51;8.90;;;2.08;;
19205;SDS011;59358;52.134;5.596;2022-09-17T11:49:24;12.90;;;3.08;;
19205;SDS011;59358;52.134;5.596;2022-09-17T11:52:00;9.68;;;2.65;;
19205;SDS011;59358;52.134;5.596;2022-09-17T11:54:32;5.60;;;1.90;;
19205;SDS011;59358;52.134;5.596;2022-09-17T11:57:05;3.72;;;1.27;;
19205;SDS011;59358;52.134;5.596;2022-09-17T11:59:37;4.13;;;1.20;;
19205;SDS011;59358;52.134;5.596;2022-09-17T12:02:13;5.00;;;1.10;;
19205;SDS011;59358;52.134;5.596;2022-09-17T12:04:45;8.63;;;1.40;;
19205;SDS011;59358;52.134;5.596;2022-09-17T12:07:23;6.22;;;1.55;;
19205;SDS011;59358;52.134;5.596;2022-09-17T12:13:01;6.18;;;1.48;;
19205;SDS011;59358;52.134;5.596;2022-09-17T12:15:33;7.10;;;1.58;;
19205;SDS011;59358;52.134;5.596;2022-09-17T12:20:49;10.20;;;1.70;;
19205;SDS011;59358;52.134;5.596;2022-09-17T12:23:21;6.88;;;1.60;;
19205;SDS011;59358;52.134;5.596;2022-09-17T12:25:59;9.20;;;1.75;;
19205;SDS011;59358;52.134;5.596;2022-09-17T12:28:36;7.07;;;1.40;;
19205;SDS011;59358;52.134;5.596;2022-09-17T12:31:13;4.07;;;0.77;;
19205;SDS011;59358;52.134;5.596;2022-09-17T12:33:47;5.88;;;1.20;;
19205;SDS011;59358;52.134;5.596;2022-09-17T12:36:27;6.60;;;1.52;;
19205;SDS011;59358;52.134;5.596;2022-09-17T12:39:27;6.85;;;1.77;;
19205;SDS011;59358;52.134;5.596;2022-09-17T12:42:13;8.57;;;1.42;;
19205;SDS011;59358;52.134;5.596;2022-09-17T12:44:57;8.27;;;1.60;;
19205;SDS011;59358;52.134;5.596;2022-09-17T12:47:46;9.43;;;1.80;;
19205;SDS011;59358;52.134;5.596;2022-09-17T12:50:33;10.57;;;1.65;;
19205;SDS011;59358;52.134;5.596;2022-09-17T12:53:17;8.70;;;1.63;;
19205;SDS011;59358;52.134;5.596;2022-09-17T12:58:52;5.85;;;1.38;;
19205;SDS011;59358;52.134;5.596;2022-09-17T13:01:30;10.32;;;1.63;;
19205;SDS011;59358;52.134;5.596;2022-09-17T13:04:04;8.07;;;1.80;;
19205;SDS011;59358;52.134;5.596;2022-09-17T13:12:25;9.70;;;1.95;;
19205;SDS011;59358;52.134;5.596;2022-09-17T13:15:05;9.88;;;1.80;;
19205;SDS011;59358;52.134;5.596;2022-09-17T13:17:57;8.23;;;2.08;;
19205;SDS011;59358;52.134;5.596;2022-09-17T13:20:32;8.57;;;2.03;;
19205;SDS011;59358;52.134;5.596;2022-09-17T13:23:03;8.63;;;1.95;;
19205;SDS011;59358;52.134;5.596;2022-09-17T13:25:31;9.13;;;2.03;;
19205;SDS011;59358;52.134;5.596;2022-09-17T13:28:06;9.02;;;2.33;;
19205;SDS011;59358;52.134;5.596;2022-09-17T13:30:55;7.40;;;1.75;;
19205;SDS011;59358;52.134;5.596;2022-09-17T13:39:08;7.60;;;1.83;;
19205;SDS011;59358;52.134;5.596;2022-09-17T13:41:37;9.65;;;2.33;;
19205;SDS011;59358;52.134;5.596;2022-09-17T13:44:07;6.28;;;1.55;;
19205;SDS011;59358;52.134;5.596;2022-09-17T13:46:37;10.02;;;1.67;;
19205;SDS011;59358;52.134;5.596;2022-09-17T13:49:11;7.43;;;1.48;;
19205;SDS011;59358;52.134;5.596;2022-09-17T13:51:42;13.77;;;2.45;;
19205;SDS011;59358;52.134;5.596;2022-09-17T13:54:13;13.65;;;2.40;;
19205;SDS011;59358;52.134;5.596;2022-09-17T13:56:42;10.82;;;1.77;;
19205;SDS011;59358;52.134;5.596;2022-09-17T13:59:12;9.63;;;2.03;;
19205;SDS011;59358;52.134;5.596;2022-09-17T14:01:58;8.15;;;1.70;;
19205;SDS011;59358;52.134;5.596;2022-09-17T14:04:49;6.18;;;1.90;;
19205;SDS011;59358;52.134;5.596;2022-09-17T14:07:30;8.25;;;2.25;;
19205;SDS011;59358;52.134;5.596;2022-09-17T14:09:59;9.73;;;1.98;;
19205;SDS011;59358;52.134;5.596;2022-09-17T14:18:36;8.30;;;1.50;;
19205;SDS011;59358;52.134;5.596;2022-09-17T14:21:14;7.57;;;1.25;;
19205;SDS011;59358;52.134;5.596;2022-09-17T14:23:51;3.00;;;1.10;;
19205;SDS011;59358;52.134;5.596;2022-09-17T14:26:25;5.15;;;1.70;;
19205;SDS011;59358;52.134;5.596;2022-09-17T14:29:04;3.72;;;1.20;;
19205;SDS011;59358;52.134;5.596;2022-09-17T14:31:42;3.40;;;0.90;;
19205;SDS011;59358;52.134;5.596;2022-09-17T14:34:13;3.55;;;1.30;;
19205;SDS011;59358;52.134;5.596;2022-09-17T14:36:44;2.80;;;1.17;;
19205;SDS011;59358;52.134;5.596;2022-09-17T14:39:14;4.88;;;1.58;;
19205;SDS011;59358;52.134;5.596;2022-09-17T14:41:46;3.85;;;1.52;;
19205;SDS011;59358;52.134;5.596;2022-09-17T14:44:17;5.22;;;1.58;;
19205;SDS011;59358;52.134;5.596;2022-09-17T14:46:47;5.30;;;1.60;;
19205;SDS011;59358;52.134;5.596;2022-09-17T14:49:21;3.85;;;1.60;;
19205;SDS011;59358;52.134;5.596;2022-09-17T14:51:49;7.45;;;1.75;;
19205;SDS011;59358;52.134;5.596;2022-09-17T14:54:18;5.93;;;1.80;;
19205;SDS011;59358;52.134;5.596;2022-09-17T14:56:49;5.53;;;2.17;;
19205;SDS011;59358;52.134;5.596;2022-09-17T14:59:26;5.50;;;1.73;;
19205;SDS011;59358;52.134;5.596;2022-09-17T15:02:27;2.90;;;1.20;;
19205;SDS011;59358;52.134;5.596;2022-09-17T15:04:58;7.00;;;1.60;;
19205;SDS011;59358;52.134;5.596;2022-09-17T15:07:26;6.60;;;1.80;;
19205;SDS011;59358;52.134;5.596;2022-09-17T15:09:53;7.47;;;2.10;;
19205;SDS011;59358;52.134;5.596;2022-09-17T15:12:31;8.50;;;1.60;;
19205;SDS011;59358;52.134;5.596;2022-09-17T15:14:57;4.47;;;1.60;;
19205;SDS011;59358;52.134;5.596;2022-09-17T15:17:24;9.50;;;3.00;;
19205;SDS011;59358;52.134;5.596;2022-09-17T15:19:51;9.95;;;1.90;;
19205;SDS011;59358;52.134;5.596;2022-09-17T15:22:24;6.70;;;1.80;;
19205;SDS011;59358;52.134;5.596;2022-09-17T15:24:55;5.90;;;1.70;;
19205;SDS011;59358;52.134;5.596;2022-09-17T15:27:25;12.60;;;2.20;;
19205;SDS011;59358;52.134;5.596;2022-09-17T15:29:55;10.48;;;1.77;;
19205;SDS011;59358;52.134;5.596;2022-09-17T15:32:26;8.35;;;1.90;;
19205;SDS011;59358;52.134;5.596;2022-09-17T15:35:08;17.35;;;3.42;;
19205;SDS011;59358;52.134;5.596;2022-09-17T15:37:44;11.45;;;2.83;;
19205;SDS011;59358;52.134;5.596;2022-09-17T15:40:13;12.05;;;2.28;;
19205;SDS011;59358;52.134;5.596;2022-09-17T15:42:50;9.75;;;2.67;;